Time,TemperatureF,DewpointF,PressureIn,WindDirection,WindDirectionDegrees,WindSpeedMPH,WindSpeedGustMPH,Humidity,HourlyPrecipIn,Conditions,Clouds,dailyrainin,SoftwareType,DateUTC
2013-06-17 00:22:00,83.0,53.0,29.78,SSW,203,1.0,2.0,36,0.00,,,0.00,,2013-06-17 07:22:00,
2013-06-17 00:33:00,82.0,53.0,29.79,SSW,203,1.0,2.0,37,0.00,,,0.00,,2013-06-17 07:33:00,
2013-06-17 00:42:00,82.0,54.0,29.78,SSW,203,1.0,2.0,38,0.00,,,0.00,,2013-06-17 07:42:00,
2013-06-17 01:11:00,80.0,53.0,29.79,SSW,203,0.0,0.0,40,0.00,,,0.00,,2013-06-17 08:11:00,
2013-06-17 01:21:00,80.0,55.0,29.78,SSW,203,1.0,2.0,42,0.00,,,0.00,,2013-06-17 08:21:00,
2013-06-17 01:33:00,79.0,55.0,29.78,SSW,203,1.0,1.0,44,0.00,,,0.00,,2013-06-17 08:33:00,
2013-06-17 01:43:00,79.0,55.0,29.78,SSW,203,1.0,2.0,43,0.00,,,0.00,,2013-06-17 08:43:00,
2013-06-17 02:01:00,78.0,54.0,29.78,SSW,203,0.0,0.0,44,0.00,,,0.00,,2013-06-17 09:01:00,
2013-06-17 02:11:00,78.0,54.0,29.78,SSW,203,1.0,2.0,44,0.00,,,0.00,,2013-06-17 09:11:00,
2013-06-17 02:21:00,78.0,55.0,29.78,SSW,203,0.0,0.0,45,0.00,,,0.00,,2013-06-17 09:21:00,
2013-06-17 02:33:00,78.0,55.0,29.78,SSW,203,0.0,1.0,45,0.00,,,0.00,,2013-06-17 09:33:00,
2013-06-17 03:02:00,77.0,55.0,29.77,SSW,203,0.0,0.0,47,0.00,,,0.00,,2013-06-17 10:02:00,
2013-06-17 03:11:00,77.0,55.0,29.77,SSW,203,1.0,2.0,47,0.00,,,0.00,,2013-06-17 10:11:00,
2013-06-17 03:22:00,76.0,54.0,29.77,SSW,203,1.0,2.0,46,0.00,,,0.00,,2013-06-17 10:22:00,
2013-06-17 03:33:00,76.0,52.0,29.77,SSW,203,1.0,2.0,43,0.00,,,0.00,,2013-06-17 10:33:00,
2013-06-17 03:42:00,76.0,51.0,29.77,SSW,203,1.0,2.0,42,0.00,,,0.00,,2013-06-17 10:42:00,
2013-06-17 03:53:00,76.0,52.0,29.77,SSW,203,0.0,0.0,43,0.00,,,0.00,,2013-06-17 10:53:00,
2013-06-17 04:01:00,76.0,52.0,29.78,SSW,203,0.0,0.0,43,0.00,,,0.00,,2013-06-17 11:01:00,
2013-06-17 04:11:00,76.0,52.0,29.78,SSW,203,0.0,0.0,43,0.00,,,0.00,,2013-06-17 11:11:00,
2013-06-17 04:23:00,75.0,52.0,29.78,SSW,203,0.0,0.0,45,0.00,,,0.00,,2013-06-17 11:23:00,
2013-06-17 04:33:00,74.0,53.0,29.78,SSW,203,0.0,1.0,48,0.00,,,0.00,,2013-06-17 11:33:00,
2013-06-17 04:53:00,73.0,52.0,29.78,SSW,203,0.0,0.0,48,0.00,,,0.00,,2013-06-17 11:53:00,
2013-06-17 05:02:00,73.0,53.0,29.79,SSW,203,0.0,0.0,49,0.00,,,0.00,,2013-06-17 12:02:00,
2013-06-17 05:11:00,72.0,52.0,29.78,SSW,203,0.0,0.0,50,0.00,,,0.00,,2013-06-17 12:11:00,
2013-06-17 05:22:00,72.0,52.0,29.79,SSW,203,0.0,0.0,50,0.00,,,0.00,,2013-06-17 12:22:00,
2013-06-17 05:33:00,72.0,53.0,29.79,SSW,203,0.0,0.0,51,0.00,,,0.00,,2013-06-17 12:33:00,
2013-06-17 05:43:00,72.0,53.0,29.79,SSW,203,0.0,0.0,51,0.00,,,0.00,,2013-06-17 12:43:00,
2013-06-17 05:52:00,71.0,52.0,29.79,SSW,203,0.0,0.0,51,0.00,,,0.00,,2013-06-17 12:52:00,
2013-06-17 06:01:00,71.0,53.0,29.79,SSW,203,0.0,0.0,53,0.00,,,0.00,,2013-06-17 13:01:00,
2013-06-17 06:11:00,71.0,53.0,29.80,SSW,203,0.0,0.0,53,0.00,,,0.00,,2013-06-17 13:11:00,
2013-06-17 06:22:00,71.0,53.0,29.80,SSW,203,0.0,0.0,53,0.00,,,0.00,,2013-06-17 13:22:00,
2013-06-17 06:32:00,72.0,53.0,29.80,SSW,203,0.0,0.0,52,0.00,,,0.00,,2013-06-17 13:32:00,
2013-06-17 07:21:00,76.0,54.0,29.81,SSW,203,0.0,0.0,46,0.00,,,0.00,,2013-06-17 14:21:00,
2013-06-17 07:34:00,77.0,51.0,29.81,SSW,203,0.0,0.0,41,0.00,,,0.00,,2013-06-17 14:34:00,
2013-06-17 07:43:00,77.0,51.0,29.82,SSW,203,0.0,0.0,41,0.00,,,0.00,,2013-06-17 14:43:00,
2013-06-17 07:53:00,78.0,51.0,29.81,SSW,203,0.0,0.0,39,0.00,,,0.00,,2013-06-17 14:53:00,
2013-06-17 08:01:00,79.0,51.0,29.82,SSW,203,0.0,0.0,38,0.00,,,0.00,,2013-06-17 15:01:00,
2013-06-17 08:11:00,80.0,52.0,29.82,SSW,203,0.0,1.0,38,0.00,,,0.00,,2013-06-17 15:11:00,
2013-06-17 08:22:00,81.0,54.0,29.83,SSW,203,1.0,2.0,39,0.00,,,0.00,,2013-06-17 15:22:00,
2013-06-17 08:33:00,82.0,54.0,29.83,ESE,113,0.0,1.0,38,0.00,,,0.00,,2013-06-17 15:33:00,
2013-06-17 08:52:00,83.0,53.0,29.83,South,180,2.0,2.0,36,0.00,,,0.00,,2013-06-17 15:52:00,
2013-06-17 09:01:00,85.0,53.0,29.83,South,180,1.0,2.0,33,0.00,,,0.00,,2013-06-17 16:01:00,
2013-06-17 09:21:00,87.0,52.0,29.83,South,180,0.0,0.0,30,0.00,,,0.00,,2013-06-17 16:21:00,
2013-06-17 09:33:00,87.0,51.0,29.83,South,180,2.0,3.0,29,0.00,,,0.00,,2013-06-17 16:33:00,
2013-06-17 09:43:00,88.0,50.0,29.83,South,180,2.0,3.0,27,0.00,,,0.00,,2013-06-17 16:43:00,
2013-06-17 09:53:00,90.0,50.0,29.83,South,180,2.0,3.0,26,0.00,,,0.00,,2013-06-17 16:53:00,
2013-06-17 10:02:00,90.0,50.0,29.84,South,180,1.0,3.0,26,0.00,,,0.00,,2013-06-17 17:02:00,
2013-06-17 10:11:00,90.0,50.0,29.83,SSW,203,2.0,3.0,26,0.00,,,0.00,,2013-06-17 17:11:00,
2013-06-17 10:22:00,91.0,51.0,29.82,South,180,1.0,3.0,26,0.00,,,0.00,,2013-06-17 17:22:00,
2013-06-17 10:33:00,92.0,51.0,29.83,South,180,0.0,0.0,25,0.00,,,0.00,,2013-06-17 17:33:00,
2013-06-17 10:52:00,92.0,50.0,29.83,South,180,2.0,3.0,24,0.00,,,0.00,,2013-06-17 17:52:00,
2013-06-17 11:22:00,94.0,49.0,29.83,South,180,1.0,2.0,22,0.00,,,0.00,,2013-06-17 18:22:00,
2013-06-17 11:33:00,94.0,49.0,29.83,South,180,0.0,0.0,22,0.00,,,0.00,,2013-06-17 18:33:00,
2013-06-17 12:11:00,98.0,51.0,29.82,WSW,248,2.0,3.0,21,0.00,,,0.00,,2013-06-17 19:11:00,
2013-06-17 12:22:00,98.0,49.0,29.82,SW,225,1.0,2.0,19,0.00,,,0.00,,2013-06-17 19:22:00,
2013-06-17 12:53:00,99.0,48.0,29.80,WNW,293,2.0,5.0,18,0.00,,,0.00,,2013-06-17 19:53:00,
2013-06-17 13:11:00,101.0,48.0,29.80,WNW,293,3.0,3.0,17,0.00,,,0.00,,2013-06-17 20:11:00,
2013-06-17 13:22:00,101.0,48.0,29.79,WNW,293,2.0,3.0,17,0.00,,,0.00,,2013-06-17 20:22:00,
2013-06-17 13:33:00,101.0,48.0,29.79,NW,315,1.0,2.0,17,0.00,,,0.00,,2013-06-17 20:33:00,
2013-06-17 14:01:00,103.0,45.0,29.77,SW,225,2.0,3.0,14,0.00,,,0.00,,2013-06-17 21:01:00,
2013-06-17 14:22:00,103.0,46.0,29.77,SSE,158,2.0,3.0,15,0.00,,,0.00,,2013-06-17 21:22:00,
2013-06-17 15:01:00,104.0,47.0,29.75,South,180,3.0,5.0,15,0.00,,,0.00,,2013-06-17 22:01:00,
2013-06-17 15:11:00,105.0,48.0,29.75,SW,225,5.0,7.0,15,0.00,,,0.00,,2013-06-17 22:11:00,
2013-06-17 15:22:00,105.0,48.0,29.74,West,270,3.0,8.0,15,0.00,,,0.00,,2013-06-17 22:22:00,
2013-06-17 15:53:00,105.0,48.0,29.73,SSW,203,5.0,6.0,15,0.00,,,0.00,,2013-06-17 22:53:00,
2013-06-17 16:11:00,105.0,46.0,29.72,SW,225,3.0,7.0,14,0.00,,,0.00,,2013-06-17 23:11:00,
2013-06-17 16:22:00,105.0,46.0,29.72,SSW,203,3.0,6.0,14,0.00,,,0.00,,2013-06-17 23:22:00,
2013-06-17 16:42:00,105.0,46.0,29.71,South,180,3.0,7.0,14,0.00,,,0.00,,2013-06-17 23:42:00,
2013-06-17 16:52:00,105.0,46.0,29.71,South,180,5.0,6.0,14,0.00,,,0.00,,2013-06-17 23:52:00,
2013-06-17 17:22:00,105.0,48.0,29.70,SW,225,3.0,5.0,15,0.00,,,0.00,,2013-06-18 00:22:00,
2013-06-17 17:32:00,105.0,46.0,29.70,SW,225,3.0,5.0,14,0.00,,,0.00,,2013-06-18 00:32:00,
2013-06-17 17:43:00,105.0,46.0,29.69,SW,225,1.0,2.0,14,0.00,,,0.00,,2013-06-18 00:43:00,
2013-06-17 18:11:00,104.0,45.0,29.69,SSW,203,3.0,5.0,14,0.00,,,0.00,,2013-06-18 01:11:00,
2013-06-17 18:22:00,104.0,47.0,29.69,WSW,248,1.0,3.0,15,0.00,,,0.00,,2013-06-18 01:22:00,
2013-06-17 19:11:00,101.0,48.0,29.69,WSW,248,1.0,2.0,17,0.00,,,0.00,,2013-06-18 02:11:00,
2013-06-17 19:22:00,100.0,49.0,29.68,WSW,248,0.0,0.0,18,0.00,,,0.00,,2013-06-18 02:22:00,
2013-06-17 19:53:00,97.0,48.0,29.69,WSW,248,0.0,0.0,19,0.00,,,0.00,,2013-06-18 02:53:00,
2013-06-17 20:11:00,95.0,48.0,29.68,WSW,248,0.0,0.0,20,0.00,,,0.00,,2013-06-18 03:11:00,
2013-06-17 20:23:00,94.0,47.0,29.69,WSW,248,0.0,0.0,20,0.00,,,0.00,,2013-06-18 03:23:00,
2013-06-17 20:53:00,92.0,45.0,29.69,WSW,248,0.0,0.0,20,0.00,,,0.00,,2013-06-18 03:53:00,
2013-06-17 21:22:00,91.0,47.0,29.69,WSW,248,0.0,0.0,22,0.00,,,0.00,,2013-06-18 04:22:00,
2013-06-17 22:22:00,89.0,47.0,29.73,SSW,203,2.0,3.0,24,0.00,,,0.00,,2013-06-18 05:22:00,
2013-06-17 22:43:00,88.0,49.0,29.73,SSW,203,0.0,0.0,26,0.00,,,0.00,,2013-06-18 05:43:00,
2013-06-17 23:23:00,85.0,48.0,29.73,SSW,203,0.0,0.0,28,0.00,,,0.00,,2013-06-18 06:23:00,
2013-06-17 23:32:00,85.0,49.0,29.73,SSW,203,0.0,0.0,29,0.00,,,0.00,,2013-06-18 06:32:00,
2013-06-17 23:43:00,84.0,47.0,29.72,SSW,203,0.0,0.0,28,0.00,,,0.00,,2013-06-18 06:43:00,
2013-06-17 23:52:00,84.0,48.0,29.72,SSW,203,0.0,1.0,29,0.00,,,0.00,,2013-06-18 06:52:00,